createdAt,value
2023-03-03T00:00:05.709Z,6.82
2023-03-03T00:05:07.471Z,11.40
2023-03-03T00:10:09.484Z,6.38
2023-03-03T00:15:22.784Z,10.52
2023-03-03T00:20:35.493Z,10.00
2023-03-03T00:25:37.183Z,7.55
2023-03-03T00:30:38.657Z,10.77
2023-03-03T00:35:41.495Z,12.65
2023-03-03T00:40:43.178Z,10.70
2023-03-03T00:45:55.754Z,10.00
2023-03-03T00:51:02.008Z,9.77
2023-03-03T00:56:03.559Z,7.30
2023-03-03T01:01:05.242Z,11.30
2023-03-03T01:06:07.408Z,7.88
2023-03-03T01:11:13.828Z,8.85
2023-03-03T01:16:15.506Z,10.07
2023-03-03T01:21:17.095Z,9.27
2023-03-03T01:26:18.605Z,7.40
2023-03-03T01:31:20.390Z,8.50
2023-03-03T01:36:26.809Z,8.90
2023-03-03T01:41:30.194Z,5.72
2023-03-03T01:46:56.575Z,9.00
2023-03-03T01:52:11.908Z,6.20
2023-03-03T01:57:28.678Z,11.20
2023-03-03T02:02:31.441Z,10.32
2023-03-03T02:07:33.530Z,7.90
2023-03-03T02:12:48.351Z,12.02
2023-03-03T02:17:54.438Z,6.35
2023-03-03T02:23:07.723Z,7.85
2023-03-03T02:28:09.413Z,7.95
2023-03-03T02:33:10.891Z,11.30
2023-03-03T02:38:15.002Z,8.18
2023-03-03T02:43:19.672Z,4.35
2023-03-03T02:48:21.128Z,8.65
2023-03-03T02:53:22.670Z,4.32
2023-03-03T02:58:24.271Z,7.47
2023-03-03T03:03:25.739Z,6.88
2023-03-03T03:08:27.211Z,6.75
2023-03-03T03:13:28.780Z,4.50
2023-03-03T03:18:30.307Z,8.55
2023-03-03T03:23:32.011Z,6.13
2023-03-03T03:28:34.057Z,8.60
2023-03-03T03:33:36.278Z,7.57
2023-03-03T03:38:39.196Z,7.53
2023-03-03T03:43:40.970Z,4.32
2023-03-03T03:48:42.462Z,4.55
2023-03-03T03:53:43.972Z,4.25
2023-03-03T03:58:45.479Z,5.80
2023-03-03T04:03:47.182Z,11.63
2023-03-03T04:08:48.720Z,5.20
2023-03-03T04:13:50.306Z,6.85
2023-03-03T04:18:51.828Z,3.00
2023-03-03T04:23:53.730Z,6.97
2023-03-03T04:28:55.251Z,5.95
2023-03-03T04:33:56.810Z,7.43
2023-03-03T04:38:58.355Z,8.50
2023-03-03T04:43:59.902Z,7.13
2023-03-03T04:49:01.528Z,4.38
2023-03-03T04:54:03.093Z,10.25
2023-03-03T04:59:04.598Z,7.38
2023-03-03T05:04:06.271Z,6.90
2023-03-03T05:09:07.892Z,6.88
2023-03-03T05:14:09.453Z,4.63
2023-03-03T05:19:10.943Z,7.43
2023-03-03T05:24:13.932Z,8.25
2023-03-03T05:29:15.434Z,9.95
2023-03-03T05:34:16.977Z,4.93
2023-03-03T05:39:18.715Z,6.75
2023-03-03T05:44:20.819Z,12.15
2023-03-03T05:49:22.428Z,10.40
2023-03-03T05:54:23.991Z,11.82
2023-03-03T05:59:25.534Z,8.30
2023-03-03T06:04:27.044Z,5.35
2023-03-03T06:09:28.630Z,6.30
2023-03-03T06:14:30.275Z,9.07
2023-03-03T06:19:32.122Z,8.70
2023-03-03T06:24:34.041Z,4.93
2023-03-03T06:29:35.550Z,12.88
2023-03-03T06:34:37.135Z,10.18
2023-03-03T06:39:38.789Z,4.80
2023-03-03T06:44:40.305Z,7.15
2023-03-03T06:49:41.864Z,8.50
2023-03-03T06:54:43.402Z,7.50
2023-03-03T06:59:47.422Z,11.50
2023-03-03T07:04:49.309Z,6.40
2023-03-03T07:09:53.678Z,4.55
2023-03-03T07:15:10.420Z,5.60
2023-03-03T07:20:19.644Z,8.35
2023-03-03T07:25:30.808Z,11.90
2023-03-03T07:30:32.935Z,6.93
2023-03-03T07:35:41.083Z,7.57
2023-03-03T07:45:49.315Z,8.32
2023-03-03T07:50:51.581Z,8.60
2023-03-03T07:55:53.440Z,10.40
2023-03-03T08:01:39.966Z,9.40
2023-03-03T08:06:46.751Z,3.75
2023-03-03T08:12:09.349Z,4.57
2023-03-03T08:17:36.987Z,4.65
2023-03-03T08:22:38.634Z,8.93
2023-03-03T08:27:40.118Z,6.38
2023-03-03T08:32:41.737Z,4.28
2023-03-03T08:37:43.336Z,5.65
2023-03-03T08:42:44.950Z,4.90
2023-03-03T08:47:46.806Z,7.80
2023-03-03T08:52:48.336Z,8.70
2023-03-03T08:57:49.888Z,9.00
2023-03-03T09:02:51.669Z,2.80
2023-03-03T09:07:53.637Z,7.18
2023-03-03T09:12:58.946Z,6.25
2023-03-03T09:18:23.695Z,3.47
2023-03-03T09:23:33.957Z,2.50
2023-03-03T09:28:36.158Z,3.50
2023-03-03T09:33:43.958Z,3.25
2023-03-03T09:43:59.238Z,2.55
2023-03-03T09:49:35.105Z,3.10
2023-03-03T09:54:50.462Z,4.93
2023-03-03T10:00:06.456Z,6.38
2023-03-03T10:05:41.671Z,1.38
2023-03-03T10:11:01.570Z,2.42
2023-03-03T10:16:12.177Z,1.75
2023-03-03T10:21:59.331Z,5.72
2023-03-03T10:27:30.375Z,3.70
2023-03-03T10:33:01.091Z,4.50
2023-03-03T10:38:18.692Z,3.80
2023-03-03T10:43:31.733Z,3.63
2023-03-03T10:49:02.295Z,2.58
2023-03-03T10:54:21.058Z,2.05
2023-03-03T10:59:50.367Z,2.53
2023-03-03T11:05:10.582Z,3.88
2023-03-03T11:10:33.937Z,2.83
2023-03-03T11:15:47.625Z,2.58
2023-03-03T11:21:23.126Z,2.05
2023-03-03T11:26:24.786Z,6.75
2023-03-03T11:31:37.156Z,2.22
2023-03-03T11:36:46.042Z,1.80
2023-03-03T11:48:11.617Z,6.93
2023-03-03T11:53:29.459Z,2.70
2023-03-03T11:58:40.168Z,4.60
2023-03-03T12:03:48.922Z,3.70
2023-03-03T12:09:18.633Z,5.35
2023-03-03T12:14:38.893Z,5.60
2023-03-03T12:19:55.322Z,4.57
2023-03-03T12:25:16.230Z,5.90
2023-03-03T12:30:52.747Z,6.60
2023-03-03T12:36:12.225Z,2.63
2023-03-03T12:41:34.979Z,3.85
2023-03-03T12:46:59.643Z,2.40
2023-03-03T12:52:31.509Z,3.85
2023-03-03T12:57:48.710Z,3.75
2023-03-03T13:02:58.771Z,5.30
2023-03-03T13:08:09.163Z,3.50
2023-03-03T13:13:22.731Z,5.72
2023-03-03T13:18:48.671Z,5.15
2023-03-03T13:23:53.045Z,6.05
2023-03-03T13:29:04.600Z,12.07
2023-03-03T13:34:23.649Z,5.55
2023-03-03T13:39:42.875Z,9.45
2023-03-03T13:44:46.998Z,7.13
2023-03-03T13:50:04.213Z,6.00
2023-03-03T13:55:05.641Z,6.17
2023-03-03T14:00:21.336Z,7.25
2023-03-03T14:05:28.585Z,8.05
2023-03-03T14:10:59.933Z,8.23
2023-03-03T14:16:16.965Z,8.63
2023-03-03T14:21:27.304Z,9.10
2023-03-03T14:26:28.837Z,10.88
2023-03-03T14:31:39.675Z,10.40
2023-03-03T14:36:43.499Z,14.30
2023-03-03T14:41:44.999Z,18.50
2023-03-03T14:46:46.535Z,21.42
2023-03-03T14:51:50.173Z,23.23
2023-03-03T14:57:10.732Z,18.85
2023-03-03T15:02:18.471Z,21.13
2023-03-03T15:12:37.175Z,23.20
2023-03-03T15:17:44.469Z,21.80
2023-03-03T15:22:48.574Z,15.25
2023-03-03T15:27:53.374Z,17.92
2023-03-03T15:33:14.247Z,16.05
2023-03-03T15:38:26.729Z,21.10
2023-03-03T15:43:46.024Z,20.00
2023-03-03T15:49:12.202Z,25.67
2023-03-03T15:54:26.346Z,19.73
2023-03-03T15:59:58.501Z,22.70
2023-03-03T16:05:08.277Z,22.90
2023-03-03T16:10:47.199Z,28.15
2023-03-03T16:16:00.685Z,19.90
2023-03-03T16:21:27.097Z,25.33
2023-03-03T16:27:05.999Z,21.88
2023-03-03T16:32:10.520Z,21.50
2023-03-03T16:37:23.188Z,28.98
2023-03-03T16:42:33.056Z,21.67
2023-03-03T16:47:41.955Z,20.40
2023-03-03T16:52:48.127Z,21.38
2023-03-03T16:58:01.501Z,22.08
2023-03-03T17:03:19.569Z,26.42
2023-03-03T17:13:28.317Z,32.60
2023-03-03T17:18:44.671Z,23.63
2023-03-03T17:24:14.066Z,25.77
2023-03-03T17:29:57.207Z,18.88
2023-03-03T17:35:20.260Z,20.20
2023-03-03T17:40:37.574Z,24.95
2023-03-03T17:45:43.175Z,22.17
2023-03-03T17:50:59.980Z,30.27
2023-03-03T17:56:20.092Z,25.30
2023-03-03T18:01:39.807Z,25.60
2023-03-03T18:07:05.846Z,21.60
2023-03-03T18:12:07.274Z,25.23
2023-03-03T18:17:42.714Z,24.75
2023-03-03T18:22:55.020Z,24.13
2023-03-03T18:27:59.524Z,25.30
2023-03-03T18:33:10.158Z,24.15
2023-03-03T18:38:17.620Z,33.33
2023-03-03T18:43:43.926Z,23.27
2023-03-03T18:49:06.704Z,36.63
2023-03-03T18:54:17.363Z,32.95
2023-03-03T18:59:34.172Z,25.20
2023-03-03T19:04:37.529Z,35.25
2023-03-03T19:09:56.969Z,19.88
2023-03-03T19:14:58.694Z,22.67
2023-03-03T19:20:18.048Z,27.90
2023-03-03T19:25:28.118Z,25.85
2023-03-03T19:30:56.089Z,22.88
2023-03-03T19:36:25.159Z,27.30
2023-03-03T19:41:52.835Z,27.90
2023-03-03T19:46:55.932Z,20.70
2023-03-03T19:52:22.563Z,27.58
2023-03-03T19:57:35.101Z,25.15
2023-03-03T20:02:42.277Z,20.95
2023-03-03T20:07:59.439Z,19.52
2023-03-03T20:13:30.506Z,23.90
2023-03-03T20:19:00.785Z,28.02
2023-03-03T20:24:16.624Z,25.25
2023-03-03T20:29:50.173Z,29.67
2023-03-03T20:35:16.469Z,27.40
2023-03-03T20:40:38.175Z,18.65
2023-03-03T20:46:02.890Z,18.15
2023-03-03T20:51:29.975Z,27.33
2023-03-03T20:56:43.916Z,23.00
2023-03-03T21:02:16.086Z,28.95
2023-03-03T21:07:26.643Z,24.90
2023-03-03T21:12:30.716Z,21.90
2023-03-03T21:17:32.353Z,21.98
2023-03-03T21:22:33.867Z,20.67
2023-03-03T21:27:37.103Z,24.05
2023-03-03T21:32:42.917Z,27.13
2023-03-03T21:37:48.749Z,28.00
2023-03-03T21:42:52.036Z,21.30
2023-03-03T21:47:55.042Z,26.45
2023-03-03T21:52:56.575Z,29.95
2023-03-03T21:57:58.116Z,18.05
2023-03-03T22:02:59.939Z,21.98
2023-03-03T22:08:01.490Z,19.50
2023-03-03T22:13:03.018Z,20.50
2023-03-03T22:18:04.595Z,18.52
2023-03-03T22:23:06.057Z,17.63
2023-03-03T22:28:07.667Z,19.92
2023-03-03T22:33:09.345Z,15.55
2023-03-03T22:38:10.931Z,23.80
2023-03-03T22:43:14.513Z,17.35
2023-03-03T22:48:16.003Z,16.35
2023-03-03T22:53:18.050Z,18.48
2023-03-03T22:58:20.652Z,21.25
2023-03-03T23:03:22.627Z,20.40
2023-03-03T23:08:24.512Z,24.38
2023-03-03T23:13:27.117Z,18.73
2023-03-03T23:18:29.552Z,26.35
2023-03-03T23:23:31.824Z,19.75
2023-03-03T23:28:33.374Z,17.08
2023-03-03T23:33:35.402Z,18.13
2023-03-03T23:38:36.942Z,25.58
2023-03-03T23:43:38.728Z,24.15
2023-03-03T23:48:40.266Z,16.02
2023-03-03T23:53:41.805Z,12.93
2023-03-03T23:58:43.350Z,17.08
